createdAt,value
2022-11-08T00:00:19.813Z,50.60
2022-11-08T00:02:46.356Z,49.80
2022-11-08T00:07:39.832Z,49.40
2022-11-08T00:10:06.258Z,49.90
2022-11-08T00:12:32.727Z,49.60
2022-11-08T00:14:59.168Z,49.50
2022-11-08T00:19:52.593Z,50.10
2022-11-08T00:22:19.025Z,49.50
2022-11-08T00:27:12.452Z,50.20
2022-11-08T00:29:38.879Z,49.90
2022-11-08T00:32:05.298Z,50.00
2022-11-08T00:34:31.721Z,49.40
2022-11-08T00:36:58.132Z,49.80
2022-11-08T00:41:51.520Z,49.70
2022-11-08T00:44:17.955Z,50.30
2022-11-08T00:51:38.337Z,50.20
2022-11-08T00:56:31.717Z,49.40
2022-11-08T00:58:58.151Z,49.30
2022-11-08T01:01:24.679Z,49.80
2022-11-08T01:06:18.201Z,49.50
2022-11-08T01:13:38.557Z,49.50
2022-11-08T01:16:04.997Z,49.70
2022-11-08T01:18:31.411Z,50.10
2022-11-08T01:25:51.780Z,49.10
2022-11-08T01:30:45.579Z,50.00
2022-11-08T01:33:12.019Z,49.20
2022-11-08T01:38:05.430Z,49.30
2022-11-08T01:40:31.851Z,49.40
2022-11-08T01:42:58.283Z,48.90
2022-11-08T01:47:51.665Z,49.10
2022-11-08T01:50:18.091Z,49.70
2022-11-08T01:52:44.506Z,49.10
2022-11-08T01:55:10.952Z,49.20
2022-11-08T01:57:37.376Z,49.50
2022-11-08T02:00:03.793Z,49.60
2022-11-08T02:02:30.325Z,49.00
2022-11-08T02:04:56.818Z,48.80
2022-11-08T02:07:23.244Z,49.60
2022-11-08T02:09:49.664Z,49.20
2022-11-08T02:12:16.105Z,48.80
2022-11-08T02:14:42.533Z,49.00
2022-11-08T02:17:08.970Z,49.50
2022-11-08T02:19:35.396Z,49.40
2022-11-08T02:22:01.841Z,49.20
2022-11-08T02:26:55.267Z,49.10
2022-11-08T02:29:21.726Z,49.00
2022-11-08T02:34:15.126Z,49.30
2022-11-08T02:36:41.554Z,49.00
2022-11-08T02:39:08.008Z,49.30
2022-11-08T02:41:34.424Z,49.10
2022-11-08T02:44:00.864Z,49.50
2022-11-08T02:48:54.247Z,49.10
2022-11-08T02:51:20.679Z,49.30
2022-11-08T02:53:47.102Z,48.70
2022-11-08T03:03:34.580Z,49.20
2022-11-08T03:06:00.998Z,48.50
2022-11-08T03:08:27.421Z,48.90
2022-11-08T03:10:53.866Z,49.20
2022-11-08T03:13:20.288Z,48.60
2022-11-08T03:15:46.718Z,48.60
2022-11-08T03:18:13.148Z,48.90
2022-11-08T03:20:39.565Z,49.50
2022-11-08T03:23:06.000Z,48.30
2022-11-08T03:25:32.432Z,48.60
2022-11-08T03:30:25.839Z,50.20
2022-11-08T03:32:52.262Z,48.40
2022-11-08T03:35:18.708Z,48.60
2022-11-08T03:40:12.086Z,48.70
2022-11-08T03:42:38.508Z,48.50
2022-11-08T03:45:04.931Z,48.60
2022-11-08T03:49:58.321Z,48.10
2022-11-08T03:52:24.728Z,47.90
2022-11-08T03:54:51.147Z,48.30
2022-11-08T03:59:44.718Z,48.40
2022-11-08T04:02:11.244Z,48.20
2022-11-08T04:04:37.734Z,48.40
2022-11-08T04:09:31.108Z,48.30
2022-11-08T04:11:57.545Z,48.30
2022-11-08T04:14:23.980Z,48.70
2022-11-08T04:16:50.511Z,48.50
2022-11-08T04:21:43.915Z,47.90
2022-11-08T04:24:10.337Z,48.40
2022-11-08T04:26:36.771Z,48.10
2022-11-08T04:29:03.194Z,48.10
2022-11-08T04:31:29.607Z,48.20
2022-11-08T04:33:56.031Z,48.50
2022-11-08T04:36:22.471Z,48.10
2022-11-08T04:38:48.890Z,48.00
2022-11-08T04:41:15.314Z,48.10
2022-11-08T04:43:41.744Z,47.90
2022-11-08T04:46:08.183Z,48.20
2022-11-08T04:48:34.600Z,47.90
2022-11-08T04:51:01.031Z,47.60
2022-11-08T04:53:27.472Z,48.10
2022-11-08T04:58:20.987Z,49.50
2022-11-08T05:00:47.493Z,47.80
2022-11-08T05:03:13.925Z,48.30
2022-11-08T05:05:40.340Z,48.10
2022-11-08T05:10:33.735Z,47.50
2022-11-08T05:13:00.160Z,47.90
2022-11-08T05:15:26.578Z,48.30
2022-11-08T05:20:19.977Z,47.80
2022-11-08T05:22:46.394Z,49.60
2022-11-08T05:25:12.835Z,48.00
2022-11-08T05:30:06.220Z,47.60
2022-11-08T05:32:32.653Z,48.50
2022-11-08T05:34:59.091Z,48.60
2022-11-08T05:39:52.510Z,48.00
2022-11-08T05:44:45.924Z,48.30
2022-11-08T05:47:12.420Z,48.70
2022-11-08T05:52:05.813Z,48.90
2022-11-08T05:54:32.232Z,48.30
2022-11-08T05:56:58.672Z,48.70
2022-11-08T05:59:25.124Z,49.30
2022-11-08T06:01:51.680Z,49.30
2022-11-08T06:04:25.478Z,48.10
2022-11-08T06:06:51.907Z,48.90
2022-11-08T06:09:18.345Z,48.00
2022-11-08T06:11:44.761Z,48.30
2022-11-08T06:14:11.199Z,48.30
2022-11-08T06:16:37.616Z,48.90
2022-11-08T06:19:05.638Z,48.60
2022-11-08T06:21:32.085Z,48.30
2022-11-08T06:23:58.602Z,48.70
2022-11-08T06:26:25.111Z,47.50
2022-11-08T06:28:51.536Z,47.80
2022-11-08T06:31:18.132Z,47.90
2022-11-08T06:33:44.555Z,47.70
2022-11-08T06:36:13.730Z,48.00
2022-11-08T06:41:07.112Z,47.90
2022-11-08T06:43:33.603Z,47.70
2022-11-08T06:46:00.022Z,48.10
2022-11-08T06:50:57.531Z,48.30
2022-11-08T06:53:23.945Z,48.20
2022-11-08T06:55:50.369Z,48.00
2022-11-08T06:58:16.782Z,46.90
2022-11-08T07:03:10.243Z,47.20
2022-11-08T07:05:36.752Z,47.70
2022-11-08T07:08:03.171Z,47.30
2022-11-08T07:10:29.705Z,47.30
2022-11-08T07:12:56.199Z,47.30
2022-11-08T07:15:22.615Z,47.50
2022-11-08T07:17:49.088Z,48.00
2022-11-08T07:22:42.495Z,48.10
2022-11-08T07:25:08.910Z,47.30
2022-11-08T07:27:35.337Z,48.00
2022-11-08T07:30:01.758Z,47.80
2022-11-08T07:32:28.236Z,47.90
2022-11-08T07:34:54.660Z,48.00
2022-11-08T07:37:21.132Z,47.70
2022-11-08T07:39:47.567Z,48.00
2022-11-08T07:42:13.996Z,47.50
2022-11-08T07:47:07.396Z,47.40
2022-11-08T07:49:33.814Z,47.50
2022-11-08T07:54:27.210Z,47.50
2022-11-08T07:56:53.639Z,47.30
2022-11-08T07:59:20.062Z,47.60
2022-11-08T08:01:46.672Z,48.00
2022-11-08T08:06:40.135Z,47.20
2022-11-08T08:09:06.577Z,47.40
2022-11-08T08:11:33.890Z,47.30
2022-11-08T08:14:00.482Z,47.20
2022-11-08T08:16:26.910Z,47.30
2022-11-08T08:18:56.322Z,47.20
2022-11-08T08:21:23.363Z,47.20
2022-11-08T08:23:49.780Z,48.00
2022-11-08T08:26:16.364Z,47.20
2022-11-08T08:28:42.840Z,46.80
2022-11-08T08:31:09.258Z,47.30
2022-11-08T08:33:36.101Z,48.10
2022-11-08T08:36:02.813Z,47.90
2022-11-08T08:38:29.275Z,47.70
2022-11-08T08:40:55.700Z,47.80
2022-11-08T08:43:22.429Z,47.50
2022-11-08T08:45:49.081Z,47.40
2022-11-08T08:48:15.646Z,47.10
2022-11-08T08:50:42.117Z,47.90
2022-11-08T08:53:08.553Z,47.90
2022-11-08T08:55:35.007Z,47.60
2022-11-08T08:58:01.444Z,47.50
2022-11-08T09:03:14.404Z,47.60
2022-11-08T09:05:40.975Z,47.50
2022-11-08T09:08:07.398Z,47.60
2022-11-08T09:10:33.866Z,47.80
2022-11-08T09:15:27.283Z,48.70
2022-11-08T09:17:53.707Z,47.90
2022-11-08T09:20:20.127Z,48.30
2022-11-08T09:22:46.546Z,47.60
2022-11-08T09:25:12.968Z,48.00
2022-11-08T09:27:39.402Z,48.50
2022-11-08T09:30:05.986Z,48.20
2022-11-08T09:32:54.331Z,48.10
2022-11-08T09:37:49.610Z,48.20
2022-11-08T09:42:47.839Z,48.20
2022-11-08T09:45:14.269Z,47.90
2022-11-08T09:47:40.709Z,48.90
2022-11-08T09:50:07.150Z,48.00
2022-11-08T09:52:33.600Z,48.50
2022-11-08T09:55:00.049Z,48.50
2022-11-08T09:57:26.483Z,48.60
2022-11-08T09:59:52.929Z,48.10
2022-11-08T10:02:19.442Z,48.90
2022-11-08T10:07:12.994Z,48.30
2022-11-08T10:09:39.423Z,48.60
2022-11-08T10:12:05.855Z,47.90
2022-11-08T10:14:32.303Z,48.60
2022-11-08T10:16:58.740Z,48.80
2022-11-08T10:19:25.227Z,48.30
2022-11-08T10:21:51.659Z,48.00
2022-11-08T10:24:18.114Z,48.40
2022-11-08T10:26:44.549Z,48.00
2022-11-08T10:31:37.966Z,48.50
2022-11-08T10:34:04.391Z,48.50
2022-11-08T10:36:30.824Z,48.50
2022-11-08T10:38:57.258Z,48.70
2022-11-08T10:43:50.647Z,48.80
2022-11-08T10:46:17.074Z,48.30
2022-11-08T10:48:43.509Z,48.40
2022-11-08T10:53:36.952Z,48.50
2022-11-08T10:56:03.385Z,48.30
2022-11-08T11:00:56.799Z,48.50
2022-11-08T11:03:23.234Z,48.60
2022-11-08T11:05:49.679Z,48.70
2022-11-08T11:08:16.442Z,49.30
2022-11-08T11:10:43.059Z,48.80
2022-11-08T11:13:09.503Z,50.60
2022-11-08T11:15:35.948Z,49.00
2022-11-08T11:18:02.399Z,49.20
2022-11-08T11:22:55.819Z,48.70
2022-11-08T11:25:22.280Z,49.30
2022-11-08T11:27:48.736Z,49.60
2022-11-08T11:30:15.179Z,48.60
2022-11-08T11:32:41.632Z,49.40
2022-11-08T11:35:08.084Z,48.70
2022-11-08T11:37:34.528Z,49.10
2022-11-08T11:40:00.976Z,48.80
2022-11-08T11:45:13.901Z,50.80
2022-11-08T11:47:40.329Z,48.20
2022-11-08T11:50:06.753Z,48.70
2022-11-08T11:52:33.179Z,48.70
2022-11-08T11:54:59.609Z,49.30
2022-11-08T11:57:26.092Z,48.80
2022-11-08T12:02:19.636Z,48.80
2022-11-08T12:04:46.163Z,49.10
2022-11-08T12:07:12.684Z,49.40
2022-11-08T12:09:39.143Z,49.00
2022-11-08T12:12:05.584Z,49.40
2022-11-08T12:14:32.025Z,49.50
2022-11-08T12:16:58.472Z,48.80
2022-11-08T12:19:24.933Z,49.30
2022-11-08T12:21:51.351Z,49.00
2022-11-08T12:24:17.796Z,49.10
2022-11-08T12:26:44.228Z,49.60
2022-11-08T12:29:10.695Z,49.30
2022-11-08T12:31:37.130Z,49.00
2022-11-08T12:34:03.551Z,49.60
2022-11-08T12:38:56.935Z,49.40
2022-11-08T12:41:23.386Z,49.70
2022-11-08T12:43:49.825Z,49.50
2022-11-08T12:48:43.243Z,49.40
2022-11-08T12:51:09.703Z,49.20
2022-11-08T12:53:36.132Z,48.90
2022-11-08T12:56:02.648Z,49.30
2022-11-08T12:58:33.832Z,48.90
2022-11-08T13:03:27.832Z,48.90
2022-11-08T13:05:54.251Z,50.40
2022-11-08T13:08:21.060Z,48.90
2022-11-08T13:10:47.742Z,49.30
2022-11-08T13:13:14.191Z,49.40
2022-11-08T13:15:40.632Z,49.80
2022-11-08T13:18:07.069Z,48.80
2022-11-08T13:20:33.490Z,49.10
2022-11-08T13:22:59.914Z,49.10
2022-11-08T13:25:26.347Z,50.20
2022-11-08T13:27:52.790Z,49.40
2022-11-08T13:30:19.224Z,49.10
2022-11-08T13:32:49.734Z,49.00
2022-11-08T13:35:19.211Z,49.20
2022-11-08T13:37:45.641Z,49.70
2022-11-08T13:40:12.089Z,49.50
2022-11-08T13:45:05.477Z,50.00
2022-11-08T13:47:31.909Z,49.70
2022-11-08T13:49:58.351Z,50.00
2022-11-08T13:52:24.767Z,49.30
2022-11-08T13:57:18.180Z,49.40
2022-11-08T13:59:44.615Z,49.90
2022-11-08T14:04:38.029Z,50.10
2022-11-08T14:07:04.509Z,49.40
2022-11-08T14:09:33.550Z,49.50
2022-11-08T14:12:00.256Z,49.70
2022-11-08T14:14:26.680Z,49.60
2022-11-08T14:16:53.210Z,50.00
2022-11-08T14:19:19.631Z,49.60
2022-11-08T14:21:46.054Z,50.10
2022-11-08T14:24:12.482Z,50.60
2022-11-08T14:26:38.929Z,50.20
2022-11-08T14:29:05.370Z,50.80
2022-11-08T14:31:31.814Z,50.10
2022-11-08T14:33:58.255Z,50.10
2022-11-08T14:36:24.675Z,50.20
2022-11-08T14:38:51.130Z,50.40
2022-11-08T14:41:17.560Z,50.20
2022-11-08T14:43:44.021Z,51.90
2022-11-08T14:46:10.469Z,50.60
2022-11-08T14:48:36.912Z,50.50
2022-11-08T14:51:03.373Z,50.70
2022-11-08T14:53:29.855Z,50.40
2022-11-08T14:55:56.275Z,50.00
2022-11-08T14:58:22.723Z,49.80
2022-11-08T15:00:49.275Z,50.80
2022-11-08T15:05:43.165Z,50.70
2022-11-08T15:08:09.606Z,50.30
2022-11-08T15:10:36.047Z,50.30
2022-11-08T15:13:02.506Z,50.00
2022-11-08T15:15:28.935Z,51.30
2022-11-08T15:17:55.360Z,50.70
2022-11-08T15:20:21.841Z,50.00
2022-11-08T15:22:50.119Z,50.40
2022-11-08T15:25:19.352Z,50.00
2022-11-08T15:27:45.775Z,51.70
2022-11-08T15:30:12.215Z,51.00
2022-11-08T15:32:38.667Z,50.10
2022-11-08T15:37:32.077Z,50.10
2022-11-08T15:39:58.516Z,50.20
2022-11-08T15:42:24.968Z,49.80
2022-11-08T15:44:51.400Z,50.10
2022-11-08T15:47:17.813Z,50.00
2022-11-08T15:49:44.235Z,49.70
2022-11-08T15:52:10.681Z,49.80
2022-11-08T15:54:37.146Z,51.00
2022-11-08T15:59:30.552Z,50.30
2022-11-08T16:01:57.020Z,49.80
2022-11-08T16:06:50.695Z,50.30
2022-11-08T16:09:17.173Z,50.40
2022-11-08T16:11:43.624Z,50.60
2022-11-08T16:14:10.059Z,50.10
2022-11-08T16:16:36.482Z,50.60
2022-11-08T16:19:02.919Z,49.90
2022-11-08T16:21:29.365Z,50.60
2022-11-08T16:23:55.799Z,49.80
2022-11-08T16:26:22.255Z,51.60
2022-11-08T16:28:48.683Z,50.40
2022-11-08T16:31:15.123Z,49.90
2022-11-08T16:33:41.543Z,49.80
2022-11-08T16:36:08.020Z,49.70
2022-11-08T16:38:34.458Z,49.50
2022-11-08T16:41:00.883Z,50.10
2022-11-08T16:43:27.315Z,50.00
2022-11-08T16:53:30.283Z,50.50
2022-11-08T16:55:56.750Z,50.20
2022-11-08T16:58:23.183Z,49.60
2022-11-08T17:00:49.626Z,50.20
2022-11-08T17:03:16.056Z,50.20
2022-11-08T17:05:42.518Z,50.70
2022-11-08T17:08:08.996Z,50.50
2022-11-08T17:10:35.426Z,50.30
2022-11-08T17:13:01.851Z,50.20
2022-11-08T17:15:28.283Z,50.10
2022-11-08T17:20:21.755Z,50.20
2022-11-08T17:22:50.950Z,50.70
2022-11-08T17:25:17.373Z,50.10
2022-11-08T17:27:43.807Z,50.60
2022-11-08T17:30:10.240Z,50.90
2022-11-08T17:32:36.682Z,50.50
2022-11-08T17:35:03.115Z,49.90
2022-11-08T17:37:29.564Z,50.40
2022-11-08T17:39:55.979Z,50.80
2022-11-08T17:42:22.431Z,49.60
2022-11-08T17:44:48.859Z,49.80
2022-11-08T17:47:15.304Z,50.30
2022-11-08T17:49:44.061Z,49.80
2022-11-08T17:52:10.738Z,50.20
2022-11-08T17:54:37.192Z,50.40
2022-11-08T17:57:03.614Z,50.60
2022-11-08T17:59:30.473Z,50.40
2022-11-08T18:01:56.974Z,50.50
2022-11-08T18:04:23.494Z,50.80
2022-11-08T18:06:49.998Z,50.20
2022-11-08T18:11:43.501Z,50.40
2022-11-08T18:14:09.943Z,50.60
2022-11-08T18:16:36.367Z,50.00
2022-11-08T18:19:02.791Z,50.50
2022-11-08T18:21:29.224Z,50.30
2022-11-08T18:23:55.663Z,50.40
2022-11-08T18:26:22.117Z,50.50
2022-11-08T18:28:48.543Z,51.10
2022-11-08T18:31:14.964Z,51.40
2022-11-08T18:33:41.391Z,50.50
2022-11-08T18:36:07.815Z,51.20
2022-11-08T18:38:34.258Z,50.60
2022-11-08T18:41:00.691Z,50.60
2022-11-08T18:43:27.123Z,51.10
2022-11-08T18:45:53.573Z,51.10
2022-11-08T18:48:20.005Z,50.80
2022-11-08T18:50:46.455Z,50.10
2022-11-08T18:53:12.900Z,51.10
2022-11-08T18:55:39.334Z,50.50
2022-11-08T18:58:06.349Z,50.10
2022-11-08T19:02:59.755Z,50.70
2022-11-08T19:05:26.246Z,51.10
2022-11-08T19:07:52.672Z,50.70
2022-11-08T19:10:19.116Z,50.70
2022-11-08T19:12:45.548Z,50.10
2022-11-08T19:15:11.976Z,50.40
2022-11-08T19:17:38.439Z,50.30
2022-11-08T19:20:04.939Z,50.60
2022-11-08T19:27:25.374Z,50.60
2022-11-08T19:32:18.875Z,50.50
2022-11-08T19:34:45.375Z,50.70
2022-11-08T19:37:11.868Z,51.40
2022-11-08T19:39:38.341Z,51.30
2022-11-08T19:44:31.756Z,51.20
2022-11-08T19:46:58.199Z,51.00
2022-11-08T19:51:51.603Z,50.70
2022-11-08T19:54:18.026Z,51.00
2022-11-08T19:57:04.336Z,50.80
2022-11-08T19:59:30.917Z,50.70
2022-11-08T20:01:57.390Z,50.30
2022-11-08T20:04:23.859Z,50.20
2022-11-08T20:06:50.371Z,51.30
2022-11-08T20:09:17.028Z,50.30
2022-11-08T20:14:10.481Z,50.00
2022-11-08T20:16:36.945Z,51.20
2022-11-08T20:19:03.366Z,50.10
2022-11-08T20:21:29.797Z,50.80
2022-11-08T20:23:56.235Z,51.00
2022-11-08T20:26:22.664Z,50.70
2022-11-08T20:28:55.998Z,51.10
2022-11-08T20:31:23.284Z,50.00
2022-11-08T20:33:50.023Z,50.80
2022-11-08T20:38:43.493Z,50.90
2022-11-08T20:41:09.931Z,50.30
2022-11-08T20:43:36.368Z,50.80
2022-11-08T20:46:02.818Z,50.50
2022-11-08T20:48:29.239Z,50.40
2022-11-08T20:50:55.668Z,51.30
2022-11-08T20:53:22.094Z,50.80
2022-11-08T20:55:48.530Z,50.40
2022-11-08T20:58:15.065Z,50.50
2022-11-08T21:03:24.564Z,50.80
2022-11-08T21:05:51.089Z,50.40
2022-11-08T21:11:03.967Z,50.80
2022-11-08T21:13:30.401Z,51.20
2022-11-08T21:16:13.860Z,50.70
2022-11-08T21:18:43.330Z,50.50
2022-11-08T21:21:09.755Z,50.40
2022-11-08T21:26:03.152Z,50.50
2022-11-08T21:28:29.587Z,50.00
2022-11-08T21:30:56.021Z,50.70
2022-11-08T21:33:22.466Z,50.50
2022-11-08T21:35:48.949Z,50.50
2022-11-08T21:38:15.421Z,50.60
2022-11-08T21:40:41.949Z,50.80
2022-11-08T21:43:08.453Z,50.80
2022-11-08T21:45:34.907Z,50.90
2022-11-08T21:50:28.318Z,50.90
2022-11-08T21:52:54.762Z,50.50
2022-11-08T21:55:21.182Z,50.70
2022-11-08T22:00:14.616Z,50.60
2022-11-08T22:02:41.081Z,50.20
2022-11-08T22:05:07.494Z,51.00
2022-11-08T22:07:33.929Z,51.00
2022-11-08T22:10:00.364Z,50.30
2022-11-08T22:12:26.786Z,50.60
2022-11-08T22:14:53.223Z,50.90
2022-11-08T22:17:19.816Z,50.80
2022-11-08T22:19:46.271Z,50.30
2022-11-08T22:24:39.687Z,50.40
2022-11-08T22:27:06.116Z,50.40
2022-11-08T22:29:32.559Z,50.30
2022-11-08T22:31:58.986Z,50.70
2022-11-08T22:34:25.416Z,50.90
2022-11-08T22:36:51.848Z,50.20
2022-11-08T22:39:18.270Z,50.10
2022-11-08T22:44:12.618Z,50.70
2022-11-08T22:46:39.605Z,50.40
2022-11-08T22:49:06.032Z,50.60
2022-11-08T22:51:32.552Z,50.50
2022-11-08T22:53:59.015Z,50.50
2022-11-08T22:56:25.503Z,50.40
2022-11-08T23:01:18.932Z,50.60
2022-11-08T23:03:45.389Z,50.90
2022-11-08T23:06:11.823Z,50.40
2022-11-08T23:08:38.268Z,50.80
2022-11-08T23:11:04.705Z,50.50
2022-11-08T23:13:31.130Z,50.40
2022-11-08T23:15:57.571Z,50.50
2022-11-08T23:18:23.999Z,50.40
2022-11-08T23:20:50.435Z,49.40
2022-11-08T23:23:17.238Z,50.00
2022-11-08T23:25:43.843Z,50.40
2022-11-08T23:28:10.275Z,50.30
2022-11-08T23:30:36.716Z,50.50
2022-11-08T23:35:30.121Z,50.10
2022-11-08T23:37:56.557Z,50.30
2022-11-08T23:40:22.974Z,51.50
2022-11-08T23:42:49.403Z,50.80
2022-11-08T23:47:42.783Z,49.90
2022-11-08T23:50:09.261Z,50.80
2022-11-08T23:52:35.684Z,50.60
2022-11-08T23:55:02.107Z,50.40
2022-11-08T23:57:28.550Z,50.10
2022-11-08T23:59:54.995Z,50.80
